createdAt,value
2019-02-14T12:36:58.176Z,50.60
2019-02-14T12:37:58.179Z,50.43
2019-02-14T12:38:58.182Z,49.95
2019-02-14T12:39:58.184Z,48.07
2019-02-14T12:40:58.183Z,47.49
2019-02-14T12:41:58.195Z,46.75
2019-02-14T12:42:58.189Z,45.04
2019-02-14T12:43:58.196Z,44.49
2019-02-14T12:44:58.198Z,44.56
2019-02-14T12:45:58.205Z,44.37
2019-02-14T12:46:58.209Z,44.27
2019-02-14T12:47:58.216Z,44.27
2019-02-14T12:48:58.222Z,45.04
2019-02-14T12:49:58.227Z,44.73
2019-02-14T12:50:58.235Z,46.36
2019-02-14T12:51:58.242Z,44.95
2019-02-14T12:52:58.247Z,43.15
2019-02-14T12:53:58.258Z,42.10
2019-02-14T12:54:58.262Z,41.97
2019-02-14T12:55:58.273Z,44.01
2019-02-14T12:56:58.278Z,41.42
2019-02-14T12:57:58.290Z,39.72
2019-02-14T12:58:58.294Z,38.96
2019-02-14T12:59:58.304Z,37.91
2019-02-14T13:00:58.312Z,38.01
2019-02-14T13:01:58.325Z,37.15
2019-02-14T13:02:58.377Z,36.09
2019-02-14T13:03:58.341Z,35.42
2019-02-14T13:04:58.349Z,35.71
2019-02-14T13:05:58.362Z,36.09
2019-02-14T13:06:58.365Z,37.22
2019-02-14T13:07:58.378Z,37.03
2019-02-14T13:08:58.382Z,36.09
2019-02-14T13:09:58.392Z,36.57
2019-02-14T13:10:58.400Z,36.38
2019-02-14T13:11:58.411Z,36.66
2019-02-14T13:12:58.420Z,37.34
2019-02-14T13:13:58.439Z,36.49
2019-02-14T13:14:58.437Z,35.14
2019-02-14T13:15:58.449Z,35.63
2019-02-14T13:16:58.455Z,35.43
2019-02-14T13:17:58.470Z,35.05
2019-02-14T13:18:58.477Z,35.05
2019-02-14T13:19:58.485Z,35.24
2019-02-14T13:20:58.491Z,35.05
2019-02-14T13:21:58.519Z,36.18
2019-02-14T13:22:58.517Z,38.09
2019-02-14T13:23:58.526Z,38.56
2019-02-14T13:24:58.764Z,39.03
2019-02-14T13:25:58.536Z,41.04
2019-02-14T13:26:58.543Z,39.53
2019-02-14T13:27:58.554Z,38.76
2019-02-14T13:28:58.561Z,38.87
2019-02-14T13:29:58.571Z,40.31
2019-02-14T13:30:58.589Z,40.29
2019-02-14T13:31:58.593Z,41.44
2019-02-14T13:32:58.596Z,41.63
2019-02-14T13:33:58.626Z,43.27
2019-02-14T13:34:58.615Z,42.40
2019-02-14T13:35:58.634Z,42.23
2019-02-14T13:37:01.533Z,42.21
2019-02-14T13:37:58.654Z,40.39
2019-02-14T13:38:58.674Z,40.39
2019-02-14T13:39:58.665Z,40.67
2019-02-14T13:40:58.674Z,42.21
2019-02-14T13:41:58.687Z,40.77
2019-02-14T13:42:58.692Z,44.06
2019-02-14T13:43:58.708Z,42.81
2019-02-14T13:44:58.716Z,40.31
2019-02-14T13:45:58.727Z,38.60
2019-02-14T13:46:58.736Z,37.18
2019-02-14T13:47:58.746Z,36.41
2019-02-14T13:48:58.756Z,36.70
2019-02-14T13:49:58.768Z,37.45
2019-02-14T13:50:58.774Z,38.60
2019-02-14T13:51:58.789Z,40.14
2019-02-14T13:52:58.800Z,40.02
2019-02-14T13:53:58.809Z,41.16
2019-02-14T13:54:58.856Z,39.16
2019-02-14T13:55:58.830Z,37.55
2019-02-14T13:56:58.838Z,36.68
2019-02-14T13:57:58.850Z,36.58
2019-02-14T13:58:58.859Z,38.22
2019-02-14T13:59:58.874Z,39.26
2019-02-14T14:00:58.878Z,38.29
2019-02-14T14:01:58.889Z,37.53
2019-02-14T14:02:58.901Z,39.16
2019-02-14T14:03:58.913Z,38.87
2019-02-14T14:04:58.922Z,39.26
2019-02-14T14:05:58.935Z,38.59
2019-02-14T14:06:58.943Z,36.86
2019-02-14T14:07:58.954Z,39.35
2019-02-14T14:08:58.965Z,38.37
2019-02-14T14:09:58.973Z,39.14
2019-02-14T14:10:58.981Z,39.22
2019-02-14T14:11:58.994Z,40.00
2019-02-14T14:12:59.017Z,39.14
2019-02-14T14:13:59.015Z,36.95
2019-02-14T14:14:59.024Z,36.28
2019-02-14T14:15:59.039Z,36.36
2019-02-14T14:16:59.046Z,37.32
2019-02-14T14:17:59.057Z,36.57
2019-02-14T14:19:06.209Z,35.80
2019-02-14T14:19:59.479Z,35.99
2019-02-14T14:20:59.082Z,36.01
2019-02-14T14:21:59.093Z,36.47
2019-02-14T14:22:59.100Z,36.47
2019-02-14T14:23:59.115Z,37.53
2019-02-14T14:24:59.122Z,37.70
2019-02-14T14:25:59.131Z,38.93
2019-02-14T14:26:59.138Z,38.74
2019-02-14T14:27:59.151Z,39.10
2019-02-14T14:28:59.167Z,39.48
2019-02-14T14:29:59.167Z,39.87
2019-02-14T14:30:59.173Z,40.35
2019-02-14T14:31:59.183Z,39.12
2019-02-14T14:32:59.189Z,38.07
2019-02-14T14:33:59.200Z,37.32
2019-02-14T14:34:59.208Z,36.76
2019-02-14T14:35:59.219Z,36.86
2019-02-14T14:36:59.231Z,37.53
2019-02-14T14:37:59.238Z,38.18
2019-02-14T14:38:59.244Z,39.23
2019-02-14T14:39:59.254Z,39.62
2019-02-14T14:40:59.259Z,38.59
2019-02-14T14:41:59.268Z,37.43
2019-02-14T14:42:59.275Z,35.71
2019-02-14T14:43:59.289Z,35.61
2019-02-14T14:44:59.292Z,35.32
2019-02-14T14:46:00.314Z,35.78
2019-02-14T14:46:59.308Z,36.07
2019-02-14T14:47:59.320Z,36.16
2019-02-14T14:48:59.333Z,36.53
2019-02-14T14:49:59.342Z,37.09
2019-02-14T14:50:59.342Z,37.47
2019-02-14T14:51:59.348Z,37.95
2019-02-14T14:52:59.351Z,38.91
2019-02-14T14:53:59.359Z,38.62
2019-02-14T14:54:59.363Z,38.62
2019-02-14T14:55:59.375Z,38.05
2019-02-14T14:56:59.378Z,38.53
2019-02-14T14:57:59.387Z,38.53
2019-02-14T14:58:59.391Z,37.68
2019-02-14T14:59:59.399Z,37.30
2019-02-14T15:00:59.403Z,37.30
2019-02-14T15:01:59.411Z,36.51
2019-02-14T15:02:59.415Z,37.18
2019-02-14T15:03:59.421Z,37.38
2019-02-14T15:04:59.586Z,37.66
2019-02-14T15:05:59.433Z,38.24
2019-02-14T15:06:59.434Z,38.43
2019-02-14T15:07:59.445Z,38.53
2019-02-14T15:08:59.449Z,40.04
2019-02-14T15:09:59.456Z,41.07
2019-02-14T15:10:59.457Z,42.03
2019-02-14T15:11:59.461Z,42.90
2019-02-14T15:12:59.465Z,44.12
2019-02-14T15:13:59.472Z,42.87
2019-02-14T15:14:59.475Z,44.88
2019-02-14T15:15:59.485Z,45.65
2019-02-14T15:16:59.486Z,46.03
2019-02-14T15:17:59.496Z,45.72
2019-02-14T15:18:59.497Z,46.89
2019-02-14T15:19:59.503Z,44.79
2019-02-14T15:20:59.508Z,42.41
2019-02-14T15:21:59.513Z,41.34
2019-02-14T15:22:59.516Z,41.24
2019-02-14T15:23:59.522Z,40.95
2019-02-14T15:24:59.524Z,41.72
2019-02-14T15:25:59.530Z,42.30
2019-02-14T15:26:59.532Z,42.01
2019-02-14T15:27:59.542Z,43.92
2019-02-14T15:28:59.544Z,44.86
2019-02-14T15:29:59.553Z,46.01
2019-02-14T15:30:59.554Z,44.07
2019-02-14T15:31:59.559Z,43.98
2019-02-14T15:32:59.566Z,46.08
2019-02-14T15:33:59.568Z,47.71
2019-02-14T15:34:59.567Z,49.23
2019-02-14T15:35:59.574Z,49.02
2019-02-14T15:36:59.573Z,47.58
2019-02-14T15:37:59.614Z,46.92
2019-02-14T15:38:59.577Z,45.77
2019-02-14T15:40:08.853Z,44.91
2019-02-14T15:40:59.584Z,44.91
2019-02-14T15:41:59.589Z,44.72
2019-02-14T15:42:59.599Z,44.72
2019-02-14T15:43:59.591Z,45.10
2019-02-14T15:44:59.598Z,45.67
2019-02-14T15:45:59.593Z,46.72
2019-02-14T15:46:59.593Z,47.39
2019-02-14T15:47:59.598Z,47.27
2019-02-14T15:48:59.610Z,46.99
2019-02-14T15:49:59.598Z,46.61
2019-02-14T15:50:59.602Z,46.89
2019-02-14T15:51:59.597Z,47.75
2019-02-14T15:52:59.595Z,48.61
2019-02-14T15:53:59.600Z,47.08
2019-02-14T15:54:59.969Z,46.70
2019-02-14T15:55:59.601Z,49.57
2019-02-14T15:56:59.598Z,51.38
2019-02-14T15:57:59.599Z,51.00
2019-02-14T15:58:59.596Z,51.17
2019-02-14T15:59:59.597Z,52.59
2019-02-14T16:00:59.593Z,54.13
2019-02-14T16:01:59.594Z,52.79
2019-02-14T16:02:59.591Z,52.79
2019-02-14T16:03:59.592Z,53.27
2019-02-14T16:04:59.589Z,52.31
2019-02-14T16:05:59.592Z,52.22
2019-02-14T16:06:59.586Z,52.88
2019-02-14T16:08:00.508Z,53.55
2019-02-14T16:08:59.588Z,53.45
2019-02-14T16:10:01.047Z,53.45
2019-02-14T16:10:59.582Z,53.45
2019-02-14T16:11:59.582Z,52.50
2019-02-14T16:12:59.579Z,53.27
2019-02-14T16:13:59.578Z,52.59
2019-02-14T16:14:59.573Z,53.45
2019-02-14T16:15:59.578Z,53.72
2019-02-14T16:16:59.572Z,53.72
2019-02-14T16:18:01.627Z,52.86
2019-02-14T16:18:59.569Z,52.67
2019-02-14T16:19:59.781Z,52.67
2019-02-14T16:20:59.563Z,53.33
2019-02-14T16:21:59.563Z,53.14
2019-02-14T16:22:59.558Z,53.33
2019-02-14T16:23:59.556Z,53.14
2019-02-14T16:24:59.551Z,54.00
2019-02-14T16:25:59.565Z,54.86
2019-02-14T16:27:01.166Z,55.72
2019-02-14T16:27:59.549Z,55.05
2019-02-14T16:29:01.608Z,54.86
2019-02-14T16:29:59.543Z,56.01
2019-02-14T16:30:59.547Z,56.77
2019-02-14T16:31:59.536Z,55.15
2019-02-14T16:32:59.531Z,53.53
2019-02-14T16:33:59.529Z,53.43
2019-02-14T16:34:59.525Z,53.05
2019-02-14T16:35:59.528Z,53.43
2019-02-14T16:36:59.527Z,54.86
2019-02-14T16:37:59.518Z,56.17
2019-02-14T16:39:01.414Z,58.46
2019-02-14T16:39:59.514Z,59.22
2019-02-14T16:40:59.810Z,60.65
2019-02-14T16:41:59.507Z,60.36
2019-02-14T16:42:59.505Z,60.33
2019-02-14T16:43:59.500Z,60.33
2019-02-14T16:44:59.495Z,61.38
2019-02-14T16:45:59.494Z,60.62
2019-02-14T16:46:59.737Z,60.14
2019-02-14T16:47:59.489Z,59.76
2019-02-14T16:48:59.483Z,60.24
2019-02-14T16:49:59.483Z,58.91
2019-02-14T16:50:59.478Z,59.57
2019-02-14T16:51:59.473Z,59.38
2019-02-14T16:52:59.472Z,59.09
2019-02-14T16:53:59.468Z,61.00
2019-02-14T16:54:59.464Z,61.29
2019-02-14T16:56:02.178Z,61.67
2019-02-14T16:56:59.456Z,61.29
2019-02-14T16:57:59.477Z,61.19
2019-02-14T16:58:59.447Z,61.38
2019-02-14T16:59:59.444Z,58.81
2019-02-14T17:00:59.442Z,60.43
2019-02-14T17:01:59.435Z,60.69
2019-02-14T17:02:59.439Z,58.97
2019-02-14T17:03:59.426Z,60.49
2019-02-14T17:04:59.425Z,61.25
2019-02-14T17:05:59.417Z,63.17
2019-02-14T17:06:59.419Z,63.17
2019-02-14T17:07:59.413Z,63.54
2019-02-14T17:08:59.413Z,64.18
2019-02-14T17:09:59.401Z,65.64
2019-02-14T17:10:59.700Z,63.42
2019-02-14T17:11:59.401Z,63.80
2019-02-14T17:12:59.394Z,64.28
2019-02-14T17:13:59.408Z,65.51
2019-02-14T17:14:59.385Z,65.51
2019-02-14T17:15:59.377Z,63.51
2019-02-14T17:16:59.378Z,63.99
2019-02-14T17:17:59.369Z,65.80
2019-02-14T17:18:59.366Z,65.45
2019-02-14T17:19:59.362Z,64.94
2019-02-14T17:20:59.361Z,66.56
2019-02-14T17:21:59.353Z,67.51
2019-02-14T17:22:59.351Z,68.94
2019-02-14T17:23:59.344Z,68.94
2019-02-14T17:24:59.342Z,69.04
2019-02-14T17:25:59.367Z,67.32
2019-02-14T17:26:59.333Z,65.99
2019-02-14T17:27:59.323Z,66.46
2019-02-14T17:28:59.322Z,67.32
2019-02-14T17:29:59.326Z,67.76
2019-02-14T17:30:59.316Z,69.89
2019-02-14T17:31:59.307Z,69.95
2019-02-14T17:32:59.305Z,70.24
2019-02-14T17:33:59.298Z,70.33
2019-02-14T17:34:59.295Z,69.95
2019-02-14T17:35:59.286Z,70.14
2019-02-14T17:36:59.285Z,72.42
2019-02-14T17:37:59.276Z,72.62
2019-02-14T17:38:59.274Z,72.81
2019-02-14T17:39:59.270Z,71.38
2019-02-14T17:40:59.565Z,72.42
2019-02-14T17:41:59.258Z,73.19
2019-02-14T17:42:59.255Z,73.66
2019-02-14T17:43:59.254Z,73.19
2019-02-14T17:44:59.251Z,73.10
2019-02-14T17:45:59.242Z,75.19
2019-02-14T17:46:59.237Z,74.99
2019-02-14T17:47:59.228Z,73.95
2019-02-14T17:48:59.228Z,72.62
2019-02-14T17:49:59.218Z,71.67
2019-02-14T17:50:59.214Z,73.57
2019-02-14T17:51:59.210Z,73.57
2019-02-14T17:52:59.207Z,72.90
2019-02-14T17:53:59.201Z,75.95
2019-02-14T17:54:59.196Z,77.76
2019-02-14T17:55:59.186Z,77.09
2019-02-14T17:56:59.184Z,74.62
2019-02-14T17:57:59.176Z,75.95
2019-02-14T17:58:59.173Z,75.19
2019-02-14T17:59:59.168Z,74.39
2019-02-14T18:00:59.197Z,75.24
2019-02-14T18:01:59.157Z,75.72
2019-02-14T18:02:59.154Z,75.05
2019-02-14T18:03:59.145Z,73.91
2019-02-14T18:04:59.142Z,74.90
2019-02-14T18:05:59.134Z,75.34
2019-02-14T18:06:59.131Z,74.39
2019-02-14T18:07:59.126Z,72.96
2019-02-14T18:08:59.123Z,72.20
2019-02-14T18:09:59.115Z,75.34
2019-02-14T18:10:59.412Z,76.76
2019-02-14T18:11:59.105Z,77.72
2019-02-14T18:12:59.101Z,78.67
2019-02-14T18:13:59.125Z,79.14
2019-02-14T18:14:59.090Z,78.86
2019-02-14T18:15:59.080Z,80.57
2019-02-14T18:16:59.081Z,81.62
2019-02-14T18:17:59.068Z,82.76
2019-02-14T18:18:59.065Z,83.04
2019-02-14T18:19:59.061Z,84.38
2019-02-14T18:20:59.057Z,85.24
2019-02-14T18:21:59.053Z,84.66
2019-02-14T18:22:59.045Z,85.52
2019-02-14T18:23:59.035Z,85.33
2019-02-14T18:24:59.033Z,86.28
2019-02-14T18:25:59.025Z,84.38
2019-02-14T18:26:59.021Z,82.57
2019-02-14T18:27:59.012Z,82.53
2019-02-14T18:28:59.011Z,83.14
2019-02-14T18:29:59.001Z,82.81
2019-02-14T18:30:58.997Z,82.91
2019-02-14T18:32:01.621Z,83.86
2019-02-14T18:32:58.989Z,85.38
2019-02-14T18:33:58.982Z,85.86
2019-02-14T18:34:58.977Z,86.24
2019-02-14T18:35:58.967Z,85.66
2019-02-14T18:36:58.964Z,84.24
2019-02-14T18:37:58.955Z,81.38
